Time;durP1;ratioP1;P1;durP2;ratioP2;P2;SDS_P1;SDS_P2;PMS_P1;PMS_P2;Temp;Humidity;BMP_temperature;BMP_pressure;BME280_temperature;BME280_humidity;BME280_pressure;Samples;Min_cycle;Max_cycle;Signal;HPM_P1;HPM_P2
2021/05/25 00:01:31;;;;;;;0.70;0.50;;;10.50;99.90;;;;;;5049272;28;20213;-75
2021/05/25 00:03:56;;;;;;;0.70;0.50;;;10.40;99.90;;;;;;5071443;28;20431;-75
2021/05/25 00:06:22;;;;;;;0.70;0.50;;;10.60;99.90;;;;;;5074157;28;20435;-75
2021/05/25 00:08:47;;;;;;;0.70;0.50;;;10.60;99.90;;;;;;5077838;28;20617;-74
2021/05/25 00:11:13;;;;;;;0.70;0.50;;;10.60;99.90;;;;;;5082902;28;20871;-75
2021/05/25 00:13:38;;;;;;;0.70;0.50;;;10.60;99.90;;;;;;5077205;28;20178;-75
2021/05/25 00:16:05;;;;;;;0.70;0.50;;;10.50;99.90;;;;;;5065869;28;20190;-75
2021/05/25 00:18:30;;;;;;;0.70;0.50;;;10.50;99.90;;;;;;5070530;28;20217;-75
2021/05/25 00:20:56;;;;;;;0.70;0.50;;;10.60;99.90;;;;;;5070727;28;20492;-75
2021/05/25 00:23:21;;;;;;;0.70;0.50;;;10.50;99.90;;;;;;5073437;28;20643;-75
2021/05/25 00:25:47;;;;;;;0.70;0.50;;;10.60;99.90;;;;;;5073731;28;20178;-75
2021/05/25 00:28:13;;;;;;;0.70;0.50;;;10.70;99.90;;;;;;5072442;28;20551;-75
2021/05/25 00:30:38;;;;;;;0.70;0.50;;;10.70;99.90;;;;;;5055923;28;20179;-75
2021/05/25 00:33:04;;;;;;;0.70;0.50;;;10.60;99.90;;;;;;5072977;28;20182;-76
2021/05/25 00:35:35;;;;;;;0.70;0.50;;;10.70;99.90;;;;;;5073898;28;20540;-74
2021/05/25 00:38:00;;;;;;;0.70;0.50;;;10.70;99.90;;;;;;5073586;28;20192;-76
2021/05/25 00:40:26;;;;;;;0.70;0.50;;;10.60;99.90;;;;;;5068882;28;20458;-75
2021/05/25 00:42:52;;;;;;;0.70;0.50;;;10.50;99.90;;;;;;5074297;28;20445;-74
2021/05/25 00:45:18;;;;;;;0.70;0.50;;;10.70;99.90;;;;;;5070619;28;20177;-78
2021/05/25 00:47:43;;;;;;;0.70;0.50;;;10.70;99.90;;;;;;5054688;28;20202;-75
2021/05/25 00:50:13;;;;;;;0.70;0.50;;;10.70;99.90;;;;;;5071475;28;20432;-75
2021/05/25 00:52:42;;;;;;;0.70;0.50;;;10.50;99.90;;;;;;5085032;28;20263;-75
2021/05/25 00:55:10;;;;;;;0.70;0.50;;;10.60;99.90;;;;;;5054813;28;20439;-75
2021/05/25 00:57:36;;;;;;;0.70;0.50;;;10.60;99.90;;;;;;5070952;28;20448;-75
2021/05/25 01:00:05;;;;;;;0.70;0.50;;;10.60;99.90;;;;;;5072695;28;20436;-75
2021/05/25 01:02:31;;;;;;;0.70;0.50;;;10.60;99.90;;;;;;5061830;28;20612;-74
2021/05/25 01:04:58;;;;;;;0.70;0.50;;;10.60;99.90;;;;;;5073346;28;20425;-76
2021/05/25 01:07:23;;;;;;;0.70;0.50;;;10.50;99.90;;;;;;5071688;28;20424;-74
2021/05/25 01:09:49;;;;;;;0.70;0.50;;;10.50;99.90;;;;;;5072132;28;20432;-74
2021/05/25 01:12:14;;;;;;;0.70;0.50;;;10.50;99.90;;;;;;5073211;28;20204;-75
2021/05/25 01:14:46;;;;;;;0.70;0.50;;;10.40;99.90;;;;;;5065035;28;20607;-74
2021/05/25 01:17:12;;;;;;;0.70;0.50;;;10.40;99.90;;;;;;5071461;28;20190;-75
2021/05/25 01:19:38;;;;;;;0.70;0.50;;;10.40;99.90;;;;;;5071219;28;20422;-75
2021/05/25 01:22:03;;;;;;;0.70;0.50;;;10.30;99.90;;;;;;5054825;28;20293;-75
2021/05/25 01:24:32;;;;;;;0.70;0.50;;;10.30;99.90;;;;;;5054104;28;20273;-75
2021/05/25 01:27:03;;;;;;;0.70;0.50;;;10.20;99.90;;;;;;5069438;28;20193;-75
2021/05/25 01:29:29;;;;;;;0.70;0.50;;;10.20;99.90;;;;;;5049292;28;20431;-75
2021/05/25 01:31:54;;;;;;;0.70;0.50;;;10.10;99.90;;;;;;5053351;28;20451;-76
2021/05/25 01:34:20;;;;;;;0.70;0.50;;;10.10;99.90;;;;;;5071356;28;20555;-75
2021/05/25 01:36:46;;;;;;;0.70;0.50;;;10.00;99.90;;;;;;5072172;28;20198;-76
2021/05/25 01:39:13;;;;;;;0.70;0.50;;;10.00;99.90;;;;;;5052783;28;20770;-75
2021/05/25 01:41:38;;;;;;;0.70;0.50;;;9.90;99.90;;;;;;5069163;28;20571;-75
2021/05/25 01:44:04;;;;;;;0.70;0.50;;;9.80;99.90;;;;;;5069783;28;20428;-75
2021/05/25 01:46:30;;;;;;;0.70;0.50;;;9.80;99.90;;;;;;5072691;28;20198;-75
2021/05/25 01:48:55;;;;;;;0.70;0.50;;;9.80;99.90;;;;;;5053474;28;20423;-74
2021/05/25 01:51:21;;;;;;;0.70;0.50;;;9.70;99.90;;;;;;5051455;28;20175;-75
2021/05/25 01:53:47;;;;;;;0.70;0.50;;;9.80;99.90;;;;;;5070080;28;20646;-75
2021/05/25 01:56:12;;;;;;;0.70;0.50;;;9.70;99.90;;;;;;5071173;28;20202;-75
2021/05/25 01:58:38;;;;;;;0.70;0.50;;;9.60;99.90;;;;;;5065131;28;20174;-75
2021/05/25 02:01:07;;;;;;;0.70;0.50;;;9.60;99.90;;;;;;5064770;28;20206;-75
2021/05/25 02:03:33;;;;;;;0.70;0.50;;;9.70;99.90;;;;;;5069454;28;20170;-75
2021/05/25 02:05:59;;;;;;;0.70;0.50;;;9.70;99.90;;;;;;5071603;28;21070;-75
2021/05/25 02:08:25;;;;;;;0.70;0.50;;;9.70;99.90;;;;;;5066669;28;20420;-75
2021/05/25 02:10:53;;;;;;;0.70;0.50;;;9.80;99.90;;;;;;5070559;28;20420;-75
2021/05/25 02:13:28;;;;;;;0.70;0.50;;;9.90;99.90;;;;;;5071541;28;20843;-76
2021/05/25 02:15:56;;;;;;;0.70;0.50;;;9.90;99.90;;;;;;5060807;28;20428;-75
2021/05/25 02:18:24;;;;;;;0.70;0.50;;;9.80;99.90;;;;;;5068341;28;20427;-75
2021/05/25 02:20:53;;;;;;;0.70;0.50;;;9.80;99.90;;;;;;5072035;28;20494;-75
2021/05/25 02:23:19;;;;;;;0.70;0.50;;;9.70;99.90;;;;;;5070497;28;20425;-74
2021/05/25 02:25:45;;;;;;;0.70;0.50;;;9.80;99.90;;;;;;5074905;28;20424;-76
2021/05/25 02:28:11;;;;;;;0.70;0.50;;;9.70;99.90;;;;;;5070842;28;20416;-75
2021/05/25 02:30:38;;;;;;;0.70;0.50;;;9.60;99.90;;;;;;5053502;28;20178;-76
2021/05/25 02:33:07;;;;;;;0.70;0.50;;;9.50;99.90;;;;;;5071191;28;20804;-76
2021/05/25 02:35:36;;;;;;;0.70;0.50;;;9.50;99.90;;;;;;5051230;28;20516;-75
2021/05/25 02:38:03;;;;;;;0.70;0.50;;;9.50;99.90;;;;;;5040638;28;20427;-74
2021/05/25 02:40:30;;;;;;;0.70;0.50;;;9.50;99.90;;;;;;5069110;28;20429;-75
2021/05/25 02:42:57;;;;;;;0.70;0.50;;;9.50;99.90;;;;;;5071327;28;20468;-75
2021/05/25 02:45:23;;;;;;;0.70;0.50;;;9.40;99.90;;;;;;5069721;28;20428;-74
2021/05/25 02:47:48;;;;;;;0.70;0.50;;;9.40;99.90;;;;;;5053053;28;20460;-75
2021/05/25 02:50:14;;;;;;;0.70;0.50;;;9.50;99.90;;;;;;5071274;28;20178;-75
2021/05/25 02:52:44;;;;;;;0.70;0.50;;;9.60;99.90;;;;;;5070602;28;20177;-76
2021/05/25 02:55:12;;;;;;;0.70;0.50;;;9.30;99.90;;;;;;5068410;28;20956;-74
2021/05/25 02:57:38;;;;;;;0.70;0.50;;;9.40;99.90;;;;;;5069436;28;20782;-76
2021/05/25 03:00:09;;;;;;;0.70;0.50;;;9.50;99.90;;;;;;5069822;28;20420;-76
2021/05/25 03:02:35;;;;;;;0.70;0.50;;;9.50;99.90;;;;;;5071407;28;20444;-75
2021/05/25 03:05:01;;;;;;;0.70;0.50;;;9.50;99.90;;;;;;5072315;28;20418;-77
2021/05/25 03:07:27;;;;;;;0.70;0.50;;;9.60;99.90;;;;;;5061502;28;20193;-75
2021/05/25 03:09:53;;;;;;;0.70;0.50;;;9.50;99.90;;;;;;5051285;28;20423;-76
2021/05/25 03:12:18;;;;;;;0.70;0.50;;;9.60;99.90;;;;;;5053797;28;20174;-76
2021/05/25 03:14:44;;;;;;;0.70;0.50;;;9.70;99.90;;;;;;5067037;28;20439;-76
2021/05/25 03:17:10;;;;;;;0.70;0.50;;;9.70;99.90;;;;;;5069677;28;20289;-75
2021/05/25 03:19:35;;;;;;;0.70;0.50;;;9.90;99.90;;;;;;5070111;28;20477;-76
2021/05/25 03:22:01;;;;;;;0.70;0.50;;;9.80;99.90;;;;;;5067416;28;20201;-77
2021/05/25 03:24:27;;;;;;;0.70;0.50;;;9.80;99.90;;;;;;5068765;28;20181;-76
2021/05/25 03:26:52;;;;;;;0.70;0.50;;;9.80;99.90;;;;;;5053152;28;20198;-76
2021/05/25 03:29:18;;;;;;;0.70;0.50;;;9.80;99.90;;;;;;5071522;28;20206;-77
2021/05/25 03:31:44;;;;;;;0.70;0.50;;;9.80;99.90;;;;;;5074742;28;20182;-78
2021/05/25 03:34:11;;;;;;;0.70;0.50;;;9.90;99.90;;;;;;5071924;28;20197;-75
2021/05/25 03:36:37;;;;;;;0.70;0.50;;;9.90;99.90;;;;;;5073041;28;20581;-77
2021/05/25 03:39:03;;;;;;;0.70;0.50;;;10.00;99.90;;;;;;5069022;28;20438;-74
2021/05/25 03:41:30;;;;;;;0.70;0.50;;;10.00;99.90;;;;;;5068666;28;20213;-76
2021/05/25 03:43:56;;;;;;;0.70;0.50;;;10.00;99.90;;;;;;5068870;28;20420;-75
2021/05/25 03:46:21;;;;;;;0.70;0.50;;;10.10;99.90;;;;;;5052837;28;20463;-75
2021/05/25 03:48:47;;;;;;;0.70;0.50;;;10.10;99.90;;;;;;5070670;28;20429;-76
2021/05/25 03:51:12;;;;;;;0.70;0.50;;;10.20;99.90;;;;;;5070999;28;20775;-77
2021/05/25 03:53:38;;;;;;;0.70;0.50;;;10.20;99.90;;;;;;5070227;28;20717;-75
2021/05/25 03:56:31;;;;;;;0.70;0.47;;;10.20;99.90;;;;;;5068530;28;20197;-75
2021/05/25 03:58:50;;;;;;;0.70;0.50;;;10.20;99.90;;;;;;5067712;28;20643;-76
2021/05/25 04:01:35;;;;;;;0.70;0.50;;;10.30;99.90;;;;;;5051051;28;20460;-76
2021/05/25 04:04:01;;;;;;;0.70;0.50;;;10.30;99.90;;;;;;5071592;28;20428;-76
2021/05/25 04:06:27;;;;;;;0.70;0.50;;;10.30;99.90;;;;;;5065228;28;21158;-76
2021/05/25 04:08:52;;;;;;;0.70;0.50;;;10.40;99.90;;;;;;5056652;28;20596;-76
2021/05/25 04:11:18;;;;;;;0.70;0.50;;;10.40;99.90;;;;;;5070734;28;21644;-76
2021/05/25 04:13:44;;;;;;;0.70;0.50;;;10.20;99.90;;;;;;5074068;28;20260;-76
2021/05/25 04:16:13;;;;;;;0.70;0.50;;;10.10;99.90;;;;;;5069756;28;20228;-75
2021/05/25 04:18:40;;;;;;;0.70;0.50;;;10.20;99.90;;;;;;5065206;28;20449;-75
2021/05/25 04:21:06;;;;;;;0.70;0.50;;;10.00;99.90;;;;;;5071021;28;20454;-76
2021/05/25 04:23:31;;;;;;;0.70;0.50;;;10.00;99.90;;;;;;5075372;28;20473;-73
2021/05/25 04:25:57;;;;;;;0.70;0.50;;;9.90;99.90;;;;;;5073046;28;21189;-76
2021/05/25 04:28:23;;;;;;;0.70;0.50;;;9.90;99.90;;;;;;5072438;28;20194;-77
2021/05/25 04:30:49;;;;;;;0.70;0.50;;;9.80;99.90;;;;;;5072810;28;20511;-76
2021/05/25 04:33:15;;;;;;;0.70;0.50;;;9.70;99.90;;;;;;5072940;28;20428;-76
2021/05/25 04:35:40;;;;;;;0.70;0.50;;;9.70;99.90;;;;;;5074173;28;20465;-77
2021/05/25 04:38:06;;;;;;;0.70;0.50;;;9.80;99.90;;;;;;5071475;28;20201;-76
2021/05/25 04:40:33;;;;;;;0.70;0.50;;;9.80;99.90;;;;;;5073155;28;20204;-76
2021/05/25 04:43:00;;;;;;;0.70;0.50;;;9.80;99.90;;;;;;5054312;28;20205;-76
2021/05/25 04:45:26;;;;;;;0.70;0.50;;;10.00;99.90;;;;;;5075007;28;20427;-78
2021/05/25 04:47:52;;;;;;;0.70;0.50;;;10.10;99.90;;;;;;5074734;28;20451;-77
2021/05/25 04:50:19;;;;;;;0.70;0.50;;;10.10;99.90;;;;;;5072682;28;20469;-75
2021/05/25 04:52:46;;;;;;;0.70;0.50;;;10.20;99.90;;;;;;5072406;28;20432;-76
2021/05/25 04:55:14;;;;;;;0.70;0.50;;;10.20;99.90;;;;;;5073496;28;20443;-78
2021/05/25 04:57:40;;;;;;;0.70;0.50;;;10.10;99.90;;;;;;5072139;28;20585;-78
2021/05/25 05:00:09;;;;;;;0.70;0.50;;;10.20;99.90;;;;;;5075396;28;20512;-78
2021/05/25 05:02:34;;;;;;;0.70;0.50;;;10.20;99.90;;;;;;5074899;28;20464;-75
2021/05/25 05:05:00;;;;;;;0.70;0.50;;;10.20;99.90;;;;;;5073875;28;20427;-78
2021/05/25 05:07:25;;;;;;;0.70;0.50;;;10.10;99.90;;;;;;5067255;28;20221;-78
2021/05/25 05:09:51;;;;;;;0.70;0.50;;;10.10;99.90;;;;;;5070942;28;20840;-76
2021/05/25 05:12:17;;;;;;;0.70;0.50;;;10.10;99.90;;;;;;5071666;28;20544;-77
2021/05/25 05:14:42;;;;;;;0.70;0.50;;;10.20;99.90;;;;;;5063537;28;20174;-77
2021/05/25 05:17:08;;;;;;;0.70;0.50;;;10.20;99.90;;;;;;5072286;28;20198;-77
2021/05/25 05:19:33;;;;;;;0.70;0.50;;;10.20;99.90;;;;;;5072872;28;20181;-75
2021/05/25 05:21:59;;;;;;;0.70;0.50;;;10.20;99.90;;;;;;5072835;28;20279;-76
2021/05/25 05:24:25;;;;;;;0.70;0.50;;;10.30;99.90;;;;;;5072011;28;20175;-75
2021/05/25 05:26:50;;;;;;;0.70;0.50;;;10.30;99.90;;;;;;5053362;28;20555;-76
2021/05/25 05:29:16;;;;;;;0.70;0.50;;;10.20;99.90;;;;;;5055533;28;20697;-77
2021/05/25 05:31:42;;;;;;;0.70;0.50;;;10.20;99.90;;;;;;5075181;28;20644;-77
2021/05/25 05:34:07;;;;;;;0.70;0.50;;;10.40;99.90;;;;;;5072466;28;20639;-76
2021/05/25 05:36:33;;;;;;;0.70;0.50;;;10.50;99.90;;;;;;5070270;28;20849;-76
2021/05/25 05:38:59;;;;;;;0.70;0.50;;;10.40;99.90;;;;;;5072629;28;20224;-77
2021/05/25 05:41:24;;;;;;;0.70;0.50;;;10.30;99.90;;;;;;5071669;28;20252;-76
2021/05/25 05:43:51;;;;;;;0.70;0.50;;;10.30;99.90;;;;;;5071872;28;20172;-76
2021/05/25 05:46:17;;;;;;;0.70;0.40;;;10.40;99.90;;;;;;5073468;28;20238;-78
2021/05/25 05:48:43;;;;;;;0.70;0.50;;;10.30;99.90;;;;;;5055381;28;20880;-76
2021/05/25 05:51:08;;;;;;;0.70;0.50;;;10.30;99.90;;;;;;5072249;28;20503;-77
2021/05/25 05:53:34;;;;;;;0.70;0.50;;;10.00;99.90;;;;;;5072154;28;20661;-77
2021/05/25 05:55:59;;;;;;;0.70;0.40;;;10.10;99.90;;;;;;5072541;28;20299;-76
2021/05/25 05:58:25;;;;;;;0.70;0.50;;;9.90;99.90;;;;;;5070932;28;20702;-78
2021/05/25 06:00:50;;;;;;;0.70;0.50;;;9.80;99.90;;;;;;5073476;28;20201;-77
2021/05/25 06:03:16;;;;;;;0.70;0.50;;;9.70;99.90;;;;;;5071786;28;20176;-76
2021/05/25 06:05:42;;;;;;;0.70;0.50;;;9.70;99.90;;;;;;5055542;28;20269;-76
2021/05/25 06:08:09;;;;;;;0.70;0.50;;;9.70;99.90;;;;;;5072033;28;20204;-76
2021/05/25 06:10:37;;;;;;;0.70;0.50;;;9.70;99.90;;;;;;5054288;28;20171;-77
2021/05/25 06:13:03;;;;;;;0.70;0.50;;;9.80;99.90;;;;;;5064605;28;20997;-76
2021/05/25 06:15:29;;;;;;;0.70;0.50;;;9.80;99.90;;;;;;5070981;28;20474;-76
2021/05/25 06:17:54;;;;;;;0.70;0.50;;;9.90;99.90;;;;;;5054033;28;20470;-75
2021/05/25 06:20:20;;;;;;;0.70;0.50;;;9.90;99.90;;;;;;5072836;28;20205;-76
2021/05/25 06:22:46;;;;;;;0.70;0.50;;;9.90;99.90;;;;;;5068075;28;20289;-76
2021/05/25 06:25:13;;;;;;;0.70;0.50;;;9.80;99.90;;;;;;5071827;28;20175;-77
2021/05/25 06:27:40;;;;;;;0.70;0.50;;;9.70;99.90;;;;;;5070009;28;20436;-78
2021/05/25 06:30:08;;;;;;;0.70;0.50;;;9.70;99.90;;;;;;5068160;28;20831;-78
2021/05/25 06:32:35;;;;;;;0.70;0.50;;;9.60;99.90;;;;;;5054204;28;20424;-76
2021/05/25 06:35:00;;;;;;;0.70;0.50;;;9.60;99.90;;;;;;5071376;28;20424;-77
2021/05/25 06:37:27;;;;;;;0.70;0.50;;;9.70;99.90;;;;;;5071050;28;20501;-77
2021/05/25 06:39:53;;;;;;;0.70;0.40;;;9.70;99.90;;;;;;5053427;28;20553;-77
2021/05/25 06:42:18;;;;;;;0.70;0.50;;;9.60;99.90;;;;;;5071556;28;20546;-77
2021/05/25 06:44:44;;;;;;;0.70;0.50;;;9.70;99.90;;;;;;5071561;28;20312;-77
2021/05/25 06:47:09;;;;;;;0.70;0.50;;;9.60;99.90;;;;;;5070864;28;20209;-77
2021/05/25 06:49:35;;;;;;;0.70;0.50;;;9.60;99.90;;;;;;5071157;28;20197;-74
2021/05/25 06:52:01;;;;;;;0.70;0.50;;;9.70;99.90;;;;;;5071953;28;20212;-77
2021/05/25 06:54:27;;;;;;;0.70;0.50;;;9.80;99.90;;;;;;5072068;28;20190;-77
2021/05/25 06:56:53;;;;;;;0.70;0.50;;;9.80;99.90;;;;;;5073440;28;20259;-77
2021/05/25 06:59:19;;;;;;;0.70;0.50;;;10.00;99.90;;;;;;5055272;28;20432;-77
2021/05/25 07:01:45;;;;;;;0.70;0.50;;;9.90;99.90;;;;;;5071642;28;20202;-77
2021/05/25 07:04:10;;;;;;;0.70;0.50;;;9.90;99.90;;;;;;5054578;28;20439;-78
2021/05/25 07:06:36;;;;;;;0.70;0.50;;;9.80;99.90;;;;;;5068098;28;20289;-77
2021/05/25 07:09:03;;;;;;;0.70;0.50;;;9.80;99.90;;;;;;5071148;28;20210;-76
2021/05/25 07:11:28;;;;;;;0.70;0.50;;;9.90;99.90;;;;;;5066525;28;20229;-77
2021/05/25 07:13:54;;;;;;;0.70;0.50;;;9.80;99.90;;;;;;5070515;28;20440;-77
2021/05/25 07:16:19;;;;;;;0.70;0.50;;;10.00;99.90;;;;;;5070496;28;20197;-76
2021/05/25 07:18:45;;;;;;;0.70;0.50;;;10.10;99.90;;;;;;5071591;28;20188;-77
2021/05/25 07:21:11;;;;;;;0.70;0.50;;;9.70;99.90;;;;;;5070998;28;20285;-77
2021/05/25 07:23:36;;;;;;;0.70;0.50;;;9.50;99.90;;;;;;5070695;28;20305;-76
2021/05/25 07:26:03;;;;;;;0.70;0.43;;;9.40;99.90;;;;;;5066514;28;20198;-75
2021/05/25 07:28:29;;;;;;;0.70;0.50;;;9.30;99.90;;;;;;5069322;28;21605;-76
2021/05/25 07:30:54;;;;;;;0.70;0.50;;;9.30;99.90;;;;;;5069256;28;20456;-76
2021/05/25 07:33:20;;;;;;;0.70;0.50;;;9.30;99.90;;;;;;5077905;28;20655;-75
2021/05/25 07:35:46;;;;;;;0.70;0.50;;;9.30;99.90;;;;;;5070336;28;20197;-76
2021/05/25 07:38:12;;;;;;;0.70;0.40;;;9.30;99.90;;;;;;5072481;28;20261;-76
2021/05/25 07:40:41;;;;;;;0.70;0.50;;;9.40;99.90;;;;;;5073973;28;20174;-76
2021/05/25 07:43:07;;;;;;;0.70;0.47;;;9.60;99.90;;;;;;5073321;28;20205;-77
2021/05/25 07:45:32;;;;;;;0.70;0.50;;;9.60;99.90;;;;;;5074558;28;20478;-76
2021/05/25 07:47:58;;;;;;;0.70;0.50;;;9.90;99.90;;;;;;5075507;28;20213;-77
2021/05/25 07:50:23;;;;;;;0.70;0.50;;;10.10;99.90;;;;;;5073211;28;20694;-76
2021/05/25 07:52:51;;;;;;;0.70;0.50;;;10.40;99.90;;;;;;5051826;28;20205;-76
2021/05/25 07:55:21;;;;;;;0.70;0.50;;;10.50;99.90;;;;;;5072374;28;20209;-77
2021/05/25 07:57:47;;;;;;;0.70;0.50;;;10.80;99.90;;;;;;5084700;28;20837;-78
2021/05/25 08:00:13;;;;;;;0.70;0.50;;;11.40;99.90;;;;;;5057409;28;20490;-77
2021/05/25 08:02:40;;;;;;;0.70;0.50;;;11.90;99.90;;;;;;5074968;28;20452;-76
2021/05/25 08:05:07;;;;;;;0.70;0.50;;;12.40;99.90;;;;;;5074032;28;20515;-78
2021/05/25 08:07:33;;;;;;;0.70;0.50;;;12.80;99.90;;;;;;5074230;28;20807;-77
2021/05/25 08:09:58;;;;;;;0.70;0.50;;;13.00;99.90;;;;;;5072560;28;20490;-78
2021/05/25 08:12:24;;;;;;;0.70;0.50;;;13.20;99.90;;;;;;5075867;28;20431;-77
2021/05/25 08:14:51;;;;;;;0.70;0.50;;;13.70;99.90;;;;;;5073819;28;20170;-79
2021/05/25 08:17:37;;;;;;;0.70;0.50;;;14.20;99.90;;;;;;5054676;28;20194;-78
2021/05/25 08:20:16;;;;;;;0.70;0.50;;;14.20;99.90;;;;;;5073410;28;20436;-77
2021/05/25 08:22:47;;;;;;;0.70;0.50;;;14.00;99.90;;;;;;5062245;28;20451;-78
2021/05/25 08:25:14;;;;;;;0.70;0.50;;;13.50;99.90;;;;;;5072046;28;20835;-79
2021/05/25 08:27:40;;;;;;;0.70;0.50;;;13.00;99.90;;;;;;5058095;28;20818;-78
2021/05/25 08:30:07;;;;;;;0.70;0.50;;;12.60;99.90;;;;;;5072245;28;20462;-76
2021/05/25 08:32:33;;;;;;;0.70;0.50;;;12.20;99.90;;;;;;5073208;28;20182;-76
2021/05/25 08:34:58;;;;;;;0.70;0.50;;;12.20;99.90;;;;;;5073162;28;20949;-76
2021/05/25 08:37:24;;;;;;;0.70;0.50;;;12.10;99.90;;;;;;5072550;28;20206;-77
2021/05/25 08:39:50;;;;;;;0.70;0.50;;;12.00;99.90;;;;;;5073003;28;20200;-77
2021/05/25 08:42:16;;;;;;;0.70;0.50;;;12.40;99.90;;;;;;5073577;28;20554;-77
2021/05/25 08:44:41;;;;;;;0.70;0.50;;;12.60;99.90;;;;;;5066019;28;20170;-79
2021/05/25 08:47:08;;;;;;;0.70;0.50;;;12.90;99.90;;;;;;5056599;28;20497;-79
2021/05/25 08:49:35;;;;;;;0.70;0.50;;;13.00;99.90;;;;;;5057517;28;20277;-78
2021/05/25 08:52:03;;;;;;;0.70;0.50;;;12.90;99.90;;;;;;5075804;28;20463;-78
2021/05/25 08:54:30;;;;;;;0.70;0.50;;;12.90;99.90;;;;;;5076526;28;20435;-76
2021/05/25 08:56:56;;;;;;;0.70;0.50;;;12.90;99.90;;;;;;5081148;28;20451;-79
2021/05/25 08:59:22;;;;;;;0.70;0.50;;;12.60;99.90;;;;;;5074968;28;20421;-77
2021/05/25 09:01:49;;;;;;;0.70;0.50;;;12.60;99.90;;;;;;5072427;28;20470;-76
2021/05/25 09:04:15;;;;;;;0.70;0.50;;;12.30;99.90;;;;;;5074564;28;20209;-77
2021/05/25 09:06:42;;;;;;;0.70;0.50;;;12.10;99.90;;;;;;5078606;28;20428;-78
2021/05/25 09:09:28;;;;;;;0.70;0.50;;;12.30;99.90;;;;;;5073384;28;20449;-77
2021/05/25 09:12:03;;;;;;;0.70;0.50;;;12.80;99.90;;;;;;5055748;28;20499;-77
2021/05/25 09:14:32;;;;;;;0.70;0.50;;;13.20;99.90;;;;;;5072068;28;20428;-78
2021/05/25 09:17:18;;;;;;;0.70;0.50;;;13.10;99.90;;;;;;5058176;28;21024;-79
2021/05/25 09:19:48;;;;;;;0.70;0.50;;;13.10;99.90;;;;;;5067502;28;20422;-78
2021/05/25 09:22:36;;;;;;;0.70;0.50;;;13.00;99.90;;;;;;5075936;28;20451;-76
2021/05/25 09:25:23;;;;;;;0.70;0.50;;;12.70;99.90;;;;;;5064724;28;20456;-77
2021/05/25 09:27:59;;;;;;;0.70;0.50;;;12.80;99.90;;;;;;5088420;28;20439;-78
2021/05/25 09:30:29;;;;;;;0.70;0.50;;;12.70;99.90;;;;;;5075037;28;20416;-79
2021/05/25 09:32:58;;;;;;;0.70;0.50;;;12.80;99.90;;;;;;5086972;28;20425;-78
2021/05/25 09:35:28;;;;;;;0.70;0.50;;;13.00;99.90;;;;;;5086395;28;20454;-78
2021/05/25 09:37:56;;;;;;;0.70;0.50;;;13.20;99.90;;;;;;5091909;28;20435;-79
2021/05/25 09:40:26;;;;;;;0.70;0.50;;;13.20;99.90;;;;;;5076189;28;20469;-78
2021/05/25 09:42:56;;;;;;;0.70;0.50;;;13.00;99.90;;;;;;5054326;28;20551;-77
2021/05/25 09:45:22;;;;;;;0.70;0.50;;;12.90;99.90;;;;;;5078194;28;20557;-78
2021/05/25 09:47:52;;;;;;;0.70;0.50;;;12.70;99.90;;;;;;5072334;28;21004;-75
2021/05/25 09:50:21;;;;;;;0.70;0.50;;;12.60;99.90;;;;;;5056546;28;20412;-78
2021/05/25 09:52:59;;;;;;;0.70;0.50;;;12.30;99.90;;;;;;5072244;28;20431;-77
2021/05/25 09:55:25;;;;;;;0.70;0.50;;;12.20;99.90;;;;;;5063262;28;20996;-78
2021/05/25 09:57:54;;;;;;;0.70;0.50;;;12.30;99.90;;;;;;5066272;28;20451;-78
2021/05/25 10:00:24;;;;;;;0.70;0.50;;;12.10;99.90;;;;;;5050898;28;20695;-76
2021/05/25 10:03:06;;;;;;;0.70;0.50;;;12.20;99.90;;;;;;5071609;28;20477;-76
2021/05/25 10:05:31;;;;;;;0.70;0.50;;;12.40;99.90;;;;;;5072441;28;20419;-77
2021/05/25 10:08:01;;;;;;;0.70;0.50;;;12.10;99.90;;;;;;5066748;28;20465;-75
2021/05/25 10:10:28;;;;;;;0.70;0.50;;;12.20;99.90;;;;;;5072005;28;20169;-76
2021/05/25 10:12:55;;;;;;;0.70;0.50;;;12.20;99.90;;;;;;5072293;28;20439;-76
2021/05/25 10:15:23;;;;;;;0.70;0.50;;;12.40;99.90;;;;;;5073061;28;20432;-77
2021/05/25 10:20:20;;;;;;;0.70;0.50;;;12.20;99.90;;;;;;5072357;28;20427;-76
2021/05/25 10:22:47;;;;;;;0.70;0.50;;;12.20;99.90;;;;;;5071960;28;20474;-77
2021/05/25 10:25:14;;;;;;;0.70;0.50;;;12.20;99.90;;;;;;5072002;28;20260;-77
2021/05/25 10:27:40;;;;;;;0.70;0.50;;;12.40;99.90;;;;;;5072498;28;20956;-76
2021/05/25 10:30:26;;;;;;;0.70;0.50;;;12.50;99.90;;;;;;5053986;28;20427;-75
2021/05/25 10:33:11;;;;;;;0.70;0.50;;;12.40;99.90;;;;;;5072117;28;20835;-78
2021/05/25 10:36:03;;;;;;;0.70;0.50;;;12.40;99.90;;;;;;5062250;28;20420;-78
2021/05/25 10:38:30;;;;;;;0.70;0.50;;;12.30;99.90;;;;;;5072236;28;20788;-77
2021/05/25 10:41:01;;;;;;;0.70;0.50;;;12.40;99.90;;;;;;5072591;28;20420;-75
2021/05/25 10:43:35;;;;;;;0.70;0.50;;;12.50;99.90;;;;;;5073510;28;20418;-78
2021/05/25 10:46:10;;;;;;;0.70;0.50;;;12.30;99.90;;;;;;5067874;28;20460;-77
2021/05/25 10:52:07;;;;;;;0.70;0.50;;;12.30;99.90;;;;;;5072754;28;20926;-77
2021/05/25 10:54:45;;;;;;;0.70;0.50;;;12.50;99.90;;;;;;5025461;28;20412;-78
2021/05/25 10:57:30;;;;;;;0.70;0.50;;;12.60;99.90;;;;;;5072040;28;20431;-78
2021/05/25 11:00:22;;;;;;;0.70;0.50;;;12.60;99.90;;;;;;5072938;28;20416;-78
2021/05/25 11:03:01;;;;;;;0.70;0.50;;;12.90;99.90;;;;;;5065959;28;20492;-78
2021/05/25 11:05:35;;;;;;;0.70;0.50;;;13.10;99.90;;;;;;5073374;28;20511;-78
2021/05/25 11:08:10;;;;;;;0.70;0.50;;;13.30;99.90;;;;;;5073668;28;20786;-78
2021/05/25 11:10:41;;;;;;;0.70;0.50;;;13.60;99.90;;;;;;5073309;28;20996;-77
2021/05/25 11:13:16;;;;;;;0.70;0.50;;;14.10;99.90;;;;;;5076131;28;20901;-77
2021/05/25 11:16:13;;;;;;;0.70;0.50;;;14.40;99.90;;;;;;5075526;28;20423;-78
2021/05/25 11:24:36;;;;;;;0.70;0.50;;;16.00;99.90;;;;;;5076080;28;20422;-76
2021/05/25 11:27:07;;;;;;;0.70;0.50;;;17.20;99.90;;;;;;5055202;28;20437;-78
2021/05/25 11:29:39;;;;;;;0.70;0.50;;;18.10;99.90;;;;;;5079028;28;20416;-79
2021/05/25 11:32:11;;;;;;;0.73;0.50;;;18.80;99.90;;;;;;5080283;28;21098;-79
2021/05/25 11:34:37;;;;;;;0.77;0.50;;;19.20;99.90;;;;;;5070853;28;20420;-77
2021/05/25 11:37:05;;;;;;;0.70;0.50;;;19.40;99.90;;;;;;5068134;28;20523;-76
2021/05/25 11:39:35;;;;;;;0.80;0.60;;;19.30;99.90;;;;;;5063308;28;20427;-77
2021/05/25 11:42:05;;;;;;;0.80;0.50;;;19.40;99.90;;;;;;5089087;28;20948;-79
2021/05/25 11:44:41;;;;;;;0.80;0.50;;;18.90;99.90;;;;;;5100180;28;20447;-78
2021/05/25 11:47:06;;;;;;;0.80;0.50;;;19.00;99.90;;;;;;5066999;28;20483;-78
2021/05/25 11:49:38;;;;;;;0.80;0.50;;;18.50;99.90;;;;;;5057760;28;20423;-77
2021/05/25 11:52:24;;;;;;;0.70;0.50;;;18.90;99.90;;;;;;5097258;28;20219;-77
2021/05/25 11:54:52;;;;;;;0.70;0.50;;;18.80;99.90;;;;;;5074208;28;20486;-77
2021/05/25 11:57:27;;;;;;;0.70;0.50;;;18.50;99.90;;;;;;5083869;28;20439;-78
2021/05/25 11:59:55;;;;;;;0.70;0.50;;;19.10;99.90;;;;;;5084510;28;20794;-77
2021/05/25 12:02:29;;;;;;;0.70;0.50;;;19.40;99.90;;;;;;5075393;28;20458;-77
2021/05/25 12:05:03;;;;;;;0.70;0.50;;;19.00;99.90;;;;;;5063485;28;20432;-76
2021/05/25 12:07:29;;;;;;;0.70;0.50;;;17.70;99.90;;;;;;5056995;28;21066;-75
2021/05/25 12:09:56;;;;;;;0.70;0.50;;;17.20;99.90;;;;;;5058193;28;20508;-78
2021/05/25 12:12:26;;;;;;;0.70;0.50;;;16.10;99.90;;;;;;5038240;28;20178;-77
2021/05/25 12:14:52;;;;;;;0.70;0.50;;;15.90;99.90;;;;;;5042118;28;20850;-77
2021/05/25 12:17:22;;;;;;;0.70;0.50;;;15.60;99.90;;;;;;5064848;28;20444;-76
2021/05/25 12:19:56;;;;;;;0.70;0.50;;;14.90;99.90;;;;;;5068577;28;20463;-75
2021/05/25 12:22:34;;;;;;;0.70;0.50;;;13.80;99.90;;;;;;5073555;28;21024;-76
2021/05/25 12:25:20;;;;;;;0.70;0.50;;;12.80;99.90;;;;;;5067453;28;20504;-75
2021/05/25 12:27:50;;;;;;;0.70;0.50;;;12.40;99.90;;;;;;5074054;28;20807;-78
2021/05/25 12:30:18;;;;;;;0.70;0.50;;;12.00;99.90;;;;;;5073026;28;20424;-76
2021/05/25 12:32:45;;;;;;;0.70;0.50;;;11.70;99.90;;;;;;5073891;28;20420;-75
2021/05/25 12:35:12;;;;;;;0.70;0.50;;;11.60;99.90;;;;;;5056165;28;20420;-75
2021/05/25 12:37:37;;;;;;;0.70;0.50;;;11.30;99.90;;;;;;5056094;28;20440;-75
2021/05/25 12:40:08;;;;;;;0.70;0.50;;;11.10;99.90;;;;;;5073996;28;20831;-75
2021/05/25 12:42:43;;;;;;;0.70;0.50;;;11.00;99.90;;;;;;5067214;28;20670;-75
2021/05/25 12:45:13;;;;;;;0.70;0.50;;;10.80;99.90;;;;;;5073142;28;20419;-75
2021/05/25 12:47:52;;;;;;;0.70;0.50;;;10.60;99.90;;;;;;5056013;28;20810;-75
2021/05/25 12:50:27;;;;;;;0.70;0.50;;;10.70;99.90;;;;;;5073232;28;20456;-73
2021/05/25 12:53:09;;;;;;;0.70;0.50;;;10.50;99.90;;;;;;5059535;28;20428;-78
2021/05/25 12:55:55;;;;;;;0.70;0.50;;;10.70;99.90;;;;;;5072658;28;20413;-79
2021/05/25 12:58:46;;;;;;;0.70;0.50;;;10.80;99.90;;;;;;5048437;28;20439;-79
2021/05/25 13:01:33;;;;;;;0.70;0.50;;;10.80;99.90;;;;;;5062974;28;20444;-78
2021/05/25 13:04:01;;;;;;;0.70;0.50;;;10.80;99.90;;;;;;5065094;28;20424;-79
2021/05/25 13:06:45;;;;;;;0.70;0.50;;;10.90;99.90;;;;;;5020430;28;20979;-78
2021/05/25 13:09:28;;;;;;;0.70;0.50;;;11.00;99.90;;;;;;5013111;28;20494;-78